TN01 weather

Ray Airport
Rosemark, Tennessee, United States

Public forecast

Using degrees Fahrenheit for public forecast. Weather courtesy of forecast.io.

Closest aviation weather report (METAR) to Ray Airport

Closest report is Millington-Memphis Airport, 2.6 nm (4.7 km) WNW. Retrieved 2020/02/19 05:50 UTC (51 minutes ago):

KNQA 190550Z 02009KT 10SM OVC090 05/01 A3033

Closest aviation forecast (TAF) to Ray Airport

Closest forecast is Memphis International Airport, 19.9 nm (36.8 km) SSW. Retrieved 2020/02/19 06:22 UTC (19 minutes ago):

TAF KMEM 190520Z 1906/2012 03012KT P6SM SCT014 OVC080 FM191200 03012KT P6SM SCT025 OVC100 FM200000 04011KT P6SM FEW030 BKN100 FM200800 04011KT P6SM BKN045